Time;durP1;ratioP1;P1;durP2;ratioP2;P2;SDS_P1;SDS_P2;PMS_P1;PMS_P2;Temp;Humidity;BMP_temperature;BMP_pressure;BME280_temperature;BME280_humidity;BME280_pressure;Samples;Min_cycle;Max_cycle;Signal;HPM_P1;HPM_P2
2023/07/07 00:01:40;;;;;;;10.20;9.50;;;12.50;83.40;;;;;;5051800;28;20188;-85
2023/07/07 00:04:06;;;;;;;9.80;9.10;;;12.40;83.40;;;;;;5051454;28;20202;-85
2023/07/07 00:06:31;;;;;;;9.90;9.30;;;12.40;83.40;;;;;;5051669;28;20243;-86
2023/07/07 00:08:57;;;;;;;10.97;10.07;;;12.40;83.50;;;;;;5052036;28;20511;-85
2023/07/07 00:11:22;;;;;;;13.23;9.60;;;12.30;83.50;;;;;;5053310;28;20183;-85
2023/07/07 00:13:48;;;;;;;10.50;9.60;;;12.30;83.80;;;;;;5052888;28;20246;-85
2023/07/07 00:16:15;;;;;;;10.13;9.43;;;12.30;84.00;;;;;;5051549;28;20270;-85
2023/07/07 00:18:41;;;;;;;10.20;9.50;;;12.20;84.30;;;;;;5052889;28;20198;-85
2023/07/07 00:21:07;;;;;;;10.30;9.43;;;12.20;84.40;;;;;;5051557;28;20183;-86
2023/07/07 00:23:32;;;;;;;10.37;9.67;;;12.20;84.50;;;;;;5051487;28;20200;-85
2023/07/07 00:26:06;;;;;;;10.30;9.60;;;12.20;84.40;;;;;;5052941;28;20211;-85
2023/07/07 00:28:32;;;;;;;10.63;9.70;;;12.30;84.60;;;;;;5051631;28;20171;-85
2023/07/07 00:30:58;;;;;;;10.73;9.27;;;12.30;84.80;;;;;;5051487;28;20648;-85
2023/07/07 00:33:24;;;;;;;9.53;8.90;;;12.20;84.70;;;;;;5051497;28;20337;-85
2023/07/07 00:35:50;;;;;;;10.10;9.30;;;12.20;84.70;;;;;;5053055;28;20180;-86
2023/07/07 00:38:17;;;;;;;9.67;8.80;;;12.20;84.60;;;;;;5052780;28;20183;-86
2023/07/07 00:40:42;;;;;;;9.90;9.20;;;12.20;84.70;;;;;;5051812;28;20186;-86
2023/07/07 00:43:16;;;;;;;10.57;9.57;;;12.20;84.90;;;;;;5052865;28;20274;-85
2023/07/07 00:45:42;;;;;;;10.03;9.20;;;12.20;84.90;;;;;;5052881;28;20220;-85
2023/07/07 00:48:16;;;;;;;9.50;8.70;;;12.20;85.00;;;;;;5052370;28;20220;-86
2023/07/07 00:50:58;;;;;;;10.13;9.33;;;12.20;85.30;;;;;;5051510;28;20166;-86
2023/07/07 00:53:24;;;;;;;10.20;9.20;;;12.20;85.40;;;;;;5052453;28;20204;-85
2023/07/07 00:55:56;;;;;;;9.53;8.60;;;12.20;85.90;;;;;;5051392;28;20635;-86
2023/07/07 00:58:24;;;;;;;8.93;8.27;;;12.20;85.90;;;;;;5051407;28;20191;-86
2023/07/07 01:00:57;;;;;;;8.97;8.30;;;12.20;85.90;;;;;;5051350;28;20195;-86
2023/07/07 01:03:32;;;;;;;8.93;8.33;;;12.10;85.80;;;;;;5051162;28;20219;-85
2023/07/07 01:06:00;;;;;;;8.77;8.03;;;12.10;85.70;;;;;;5051177;28;20199;-85
2023/07/07 01:08:25;;;;;;;8.73;8.03;;;12.10;85.70;;;;;;5051272;28;20550;-85
2023/07/07 01:10:51;;;;;;;8.80;8.20;;;12.10;85.60;;;;;;5051795;28;20173;-85
2023/07/07 01:13:17;;;;;;;8.13;7.63;;;12.00;85.40;;;;;;5051677;28;20278;-85
2023/07/07 01:16:19;;;;;;;8.50;7.87;;;12.00;85.30;;;;;;5053882;28;20559;-86
2023/07/07 01:18:55;;;;;;;9.43;8.47;;;12.00;85.10;;;;;;5054554;28;20191;-86
2023/07/07 01:21:36;;;;;;;9.63;9.00;;;11.90;85.00;;;;;;5054739;28;20222;-85
2023/07/07 01:24:26;;;;;;;9.73;8.80;;;11.90;84.80;;;;;;5055124;28;20200;-85
2023/07/07 01:27:10;;;;;;;11.23;9.10;;;11.90;84.80;;;;;;5054568;28;20203;-85
2023/07/07 01:29:41;;;;;;;9.73;9.00;;;11.80;84.70;;;;;;5056125;28;20148;-85
2023/07/07 01:32:15;;;;;;;9.83;9.13;;;11.80;84.70;;;;;;5055734;28;20176;-85
2023/07/07 01:34:41;;;;;;;8.97;8.37;;;11.70;84.60;;;;;;5054417;28;20613;-85
2023/07/07 01:37:06;;;;;;;9.90;8.90;;;11.70;84.60;;;;;;5055732;28;20172;-84
2023/07/07 01:39:32;;;;;;;10.10;9.37;;;11.70;84.50;;;;;;5054446;28;20183;-84
2023/07/07 01:42:11;;;;;;;11.07;10.20;;;11.70;84.50;;;;;;5054376;28;20172;-84
2023/07/07 01:45:11;;;;;;;9.93;9.13;;;11.70;84.60;;;;;;5054390;28;20284;-84
2023/07/07 01:47:38;;;;;;;10.60;9.60;;;11.70;84.60;;;;;;5039033;28;20188;-84
2023/07/07 01:50:15;;;;;;;10.90;9.87;;;11.70;84.60;;;;;;5054245;28;20198;-84
2023/07/07 01:53:01;;;;;;;11.03;10.20;;;11.70;84.60;;;;;;5054038;28;20647;-83
2023/07/07 01:55:47;;;;;;;11.37;10.37;;;11.70;84.80;;;;;;5055537;28;20227;-84
2023/07/07 01:58:14;;;;;;;10.77;9.97;;;11.60;84.90;;;;;;5054101;28;20263;-84
2023/07/07 02:00:40;;;;;;;13.97;10.07;;;11.60;84.80;;;;;;5055279;28;20663;-84
2023/07/07 02:03:08;;;;;;;10.53;9.70;;;11.60;84.80;;;;;;5055156;28;20572;-84
2023/07/07 02:05:34;;;;;;;10.40;9.50;;;11.60;84.70;;;;;;5053835;28;20702;-84
2023/07/07 02:08:00;;;;;;;10.73;9.80;;;11.60;84.60;;;;;;5053841;28;20177;-84
2023/07/07 02:10:25;;;;;;;9.53;8.90;;;11.60;84.70;;;;;;5053835;28;20175;-84
2023/07/07 02:12:51;;;;;;;10.03;9.20;;;11.50;84.70;;;;;;5055007;28;20192;-83
2023/07/07 02:15:17;;;;;;;9.90;9.10;;;11.50;84.70;;;;;;5054323;28;20663;-84
2023/07/07 02:17:42;;;;;;;11.40;9.27;;;11.50;84.70;;;;;;5053703;28;20180;-84
2023/07/07 02:20:11;;;;;;;9.87;9.07;;;11.50;84.70;;;;;;5054069;28;20640;-84
2023/07/07 02:22:37;;;;;;;10.43;9.43;;;11.40;84.70;;;;;;5053614;28;20596;-84
2023/07/07 02:25:03;;;;;;;9.40;8.80;;;11.40;84.70;;;;;;5054386;28;20644;-84
2023/07/07 02:27:29;;;;;;;9.67;8.87;;;11.40;84.60;;;;;;5053448;28;20176;-84
2023/07/07 02:29:54;;;;;;;9.83;9.10;;;11.40;84.60;;;;;;5054794;28;20176;-85
2023/07/07 02:32:20;;;;;;;10.00;9.30;;;11.30;84.60;;;;;;5053333;28;20173;-85
2023/07/07 02:34:49;;;;;;;13.53;9.30;;;11.30;84.50;;;;;;5053601;28;20196;-84
2023/07/07 02:37:16;;;;;;;10.10;9.40;;;11.30;84.50;;;;;;5054601;28;20237;-84
2023/07/07 02:39:42;;;;;;;10.37;9.57;;;11.30;84.50;;;;;;5053253;28;20524;-84
2023/07/07 02:42:08;;;;;;;11.20;9.33;;;11.20;84.60;;;;;;5053198;28;20179;-85
2023/07/07 02:44:33;;;;;;;10.60;9.57;;;11.20;84.60;;;;;;5053122;28;20196;-84
2023/07/07 02:46:59;;;;;;;11.07;9.50;;;11.20;84.60;;;;;;5053096;28;20203;-85
2023/07/07 02:49:24;;;;;;;11.50;10.40;;;11.20;84.70;;;;;;5053172;28;20709;-84
2023/07/07 02:51:50;;;;;;;13.03;10.07;;;11.20;84.80;;;;;;5053020;28;20210;-84
2023/07/07 02:54:15;;;;;;;12.03;10.90;;;11.20;84.80;;;;;;5053012;28;20254;-84
2023/07/07 02:56:41;;;;;;;12.43;11.37;;;11.20;84.80;;;;;;5054527;28;20203;-84
2023/07/07 02:59:06;;;;;;;14.07;11.03;;;11.20;85.00;;;;;;5053294;28;20214;-84
2023/07/07 03:01:32;;;;;;;12.00;10.53;;;11.20;85.10;;;;;;5054095;28;20172;-84
2023/07/07 03:03:58;;;;;;;11.17;10.23;;;11.20;85.20;;;;;;5052751;28;20227;-84
2023/07/07 03:06:24;;;;;;;11.73;10.50;;;11.20;85.20;;;;;;5052763;28;20208;-84
2023/07/07 03:08:51;;;;;;;11.83;10.70;;;11.20;85.30;;;;;;5054023;28;20758;-84
2023/07/07 03:11:19;;;;;;;11.60;10.57;;;11.30;85.50;;;;;;5052670;28;20648;-84
2023/07/07 03:13:49;;;;;;;11.70;10.70;;;11.30;85.70;;;;;;5053953;28;20233;-84
2023/07/07 03:16:20;;;;;;;11.60;10.70;;;11.30;86.00;;;;;;5052577;28;20176;-85
2023/07/07 03:18:51;;;;;;;12.10;11.00;;;11.40;86.20;;;;;;5053856;28;20156;-85
2023/07/07 03:21:19;;;;;;;11.67;10.87;;;11.40;86.40;;;;;;5052489;28;20183;-85
2023/07/07 03:23:45;;;;;;;13.60;11.73;;;11.50;86.60;;;;;;5053742;28;20573;-84
2023/07/07 03:26:16;;;;;;;14.43;12.97;;;11.60;86.80;;;;;;5052414;28;20249;-84
2023/07/07 03:28:42;;;;;;;14.17;12.50;;;11.70;87.10;;;;;;5052426;28;20199;-84
2023/07/07 03:31:23;;;;;;;13.50;12.10;;;11.70;87.30;;;;;;5052313;28;20168;-85
2023/07/07 03:33:50;;;;;;;13.33;11.53;;;11.80;87.60;;;;;;5053089;28;20192;-84
2023/07/07 03:36:19;;;;;;;12.27;11.30;;;11.70;87.80;;;;;;5052182;28;20184;-84
2023/07/07 03:38:44;;;;;;;16.80;11.87;;;11.70;88.10;;;;;;5052758;28;20168;-85
2023/07/07 03:41:13;;;;;;;13.27;11.80;;;11.70;88.30;;;;;;5053362;28;20691;-84
2023/07/07 03:43:39;;;;;;;11.43;10.53;;;11.70;88.50;;;;;;5052018;28;20200;-84
2023/07/07 03:46:05;;;;;;;13.70;10.93;;;11.70;88.70;;;;;;5052005;28;20207;-84
2023/07/07 03:48:31;;;;;;;11.83;10.67;;;11.70;88.80;;;;;;5053268;28;20163;-85
2023/07/07 03:50:59;;;;;;;13.57;10.37;;;11.90;88.80;;;;;;5052053;28;20670;-85
2023/07/07 03:53:26;;;;;;;11.93;9.70;;;12.00;88.90;;;;;;5051651;28;20192;-84
2023/07/07 03:55:51;;;;;;;9.93;9.10;;;12.10;88.90;;;;;;5052331;28;20172;-84
2023/07/07 03:58:18;;;;;;;10.83;9.77;;;12.10;88.80;;;;;;5053310;28;20639;-85
2023/07/07 04:00:46;;;;;;;12.37;9.20;;;12.10;88.80;;;;;;5051886;28;20183;-84
2023/07/07 04:03:12;;;;;;;18.67;16.23;;;12.10;88.70;;;;;;5051979;28;20204;-85
2023/07/07 04:05:42;;;;;;;18.73;17.13;;;12.20;88.70;;;;;;5051900;28;20291;-85
2023/07/07 04:08:08;;;;;;;20.60;18.40;;;12.20;88.70;;;;;;5053079;28;20172;-85
2023/07/07 04:10:34;;;;;;;19.43;17.47;;;12.30;88.70;;;;;;5051892;28;20233;-85
2023/07/07 04:12:59;;;;;;;17.20;15.73;;;12.50;88.60;;;;;;5051865;28;20230;-85
2023/07/07 04:15:25;;;;;;;17.97;16.50;;;12.60;88.30;;;;;;5053518;28;20632;-85
2023/07/07 04:17:50;;;;;;;18.50;14.83;;;12.80;87.90;;;;;;5051929;28;20180;-85
2023/07/07 04:20:16;;;;;;;16.90;15.33;;;12.80;87.30;;;;;;5051851;28;20180;-85
2023/07/07 04:22:41;;;;;;;16.63;15.13;;;12.90;86.90;;;;;;5051591;28;20253;-85
2023/07/07 04:25:13;;;;;;;17.77;16.37;;;13.00;86.70;;;;;;5053219;28;20191;-85
2023/07/07 04:27:39;;;;;;;17.37;16.03;;;13.00;86.50;;;;;;5053404;28;20157;-85
2023/07/07 04:30:05;;;;;;;17.77;16.33;;;13.00;86.40;;;;;;5053089;28;20180;-85
2023/07/07 04:32:32;;;;;;;19.47;16.40;;;13.00;86.30;;;;;;5051533;28;20172;-85
2023/07/07 04:34:59;;;;;;;9.57;8.67;;;13.00;86.20;;;;;;5051835;28;20210;-85
2023/07/07 04:37:24;;;;;;;9.90;8.87;;;13.10;86.20;;;;;;5051715;28;20238;-85
2023/07/07 04:39:50;;;;;;;12.63;9.07;;;13.10;86.20;;;;;;5053196;28;20644;-85
2023/07/07 04:42:15;;;;;;;11.60;9.60;;;13.10;86.20;;;;;;5051740;28;20176;-85
2023/07/07 04:44:41;;;;;;;16.43;10.17;;;13.20;86.70;;;;;;5051593;28;20192;-85
2023/07/07 04:47:06;;;;;;;12.90;9.63;;;13.20;86.80;;;;;;5051406;28;20204;-85
2023/07/07 04:49:32;;;;;;;10.00;9.20;;;13.30;87.00;;;;;;5054207;28;20195;-83
2023/07/07 04:51:58;;;;;;;13.77;9.70;;;13.30;87.20;;;;;;5055608;28;20180;-85
2023/07/07 04:54:23;;;;;;;11.07;9.83;;;13.30;87.50;;;;;;5056654;28;20290;-84
2023/07/07 04:56:49;;;;;;;12.10;9.80;;;13.40;87.80;;;;;;5055349;28;20592;-85
2023/07/07 04:59:16;;;;;;;10.77;9.23;;;13.50;88.00;;;;;;5055302;28;20614;-85
2023/07/07 05:01:42;;;;;;;10.47;9.47;;;13.50;88.20;;;;;;5055195;28;20211;-85
2023/07/07 05:04:08;;;;;;;18.87;9.87;;;13.70;88.50;;;;;;5056331;28;20222;-85
2023/07/07 05:06:39;;;;;;;11.53;9.00;;;13.70;88.50;;;;;;5055007;28;20206;-85
2023/07/07 05:09:06;;;;;;;11.53;9.47;;;13.80;88.70;;;;;;5055073;28;20169;-85
2023/07/07 05:11:34;;;;;;;10.77;8.80;;;13.90;88.70;;;;;;5056191;28;20191;-85
2023/07/07 05:14:00;;;;;;;15.10;9.43;;;14.10;89.10;;;;;;5056256;28;20235;-85
2023/07/07 05:16:31;;;;;;;9.43;8.57;;;14.20;89.10;;;;;;5056143;28;20180;-85
2023/07/07 05:18:56;;;;;;;15.27;10.17;;;14.30;89.10;;;;;;5056389;28;20640;-86
2023/07/07 05:21:24;;;;;;;12.67;9.87;;;14.40;89.20;;;;;;5054753;28;20211;-85
2023/07/07 05:23:52;;;;;;;10.47;8.93;;;14.50;89.30;;;;;;5054759;28;20200;-84
2023/07/07 05:26:18;;;;;;;9.37;8.10;;;14.60;89.30;;;;;;5054884;28;20222;-84
2023/07/07 05:28:43;;;;;;;13.03;8.27;;;14.70;89.00;;;;;;5056439;28;20168;-85
2023/07/07 05:31:09;;;;;;;9.33;8.30;;;14.80;88.60;;;;;;5054931;28;20178;-84
2023/07/07 05:33:37;;;;;;;8.83;8.03;;;14.90;88.40;;;;;;5054900;28;20206;-85
2023/07/07 05:36:05;;;;;;;9.83;8.10;;;15.00;87.60;;;;;;5055696;28;20183;-84
2023/07/07 05:38:31;;;;;;;11.33;8.57;;;15.10;87.20;;;;;;5054860;28;20187;-86
2023/07/07 05:40:57;;;;;;;13.43;8.67;;;15.20;87.00;;;;;;5054802;28;20179;-84
2023/07/07 05:43:24;;;;;;;9.15;8.25;;;15.30;86.00;;;;;;5056970;28;20202;-85
2023/07/07 05:45:57;;;;;;;10.23;8.68;;;15.50;86.00;;;;;;5055488;28;20231;-85
2023/07/07 05:48:23;;;;;;;9.48;8.63;;;15.60;86.10;;;;;;5054313;28;20180;-85
2023/07/07 05:50:49;;;;;;;10.67;8.83;;;15.60;85.40;;;;;;5054220;28;20559;-85
2023/07/07 05:53:16;;;;;;;10.68;9.27;;;15.70;85.10;;;;;;5053916;28;20196;-85
2023/07/07 05:55:46;;;;;;;11.80;8.90;;;15.70;85.10;;;;;;5055493;28;20168;-85
2023/07/07 05:58:13;;;;;;;10.93;9.88;;;15.80;84.80;;;;;;5054186;28;20168;-85
2023/07/07 06:00:38;;;;;;;10.13;9.05;;;15.80;83.90;;;;;;5053388;28;20559;-86
2023/07/07 06:03:04;;;;;;;10.25;9.25;;;15.90;83.70;;;;;;5053933;28;20199;-85
2023/07/07 06:05:29;;;;;;;10.20;9.23;;;16.00;83.90;;;;;;5053872;28;20239;-85
2023/07/07 06:07:55;;;;;;;9.82;9.02;;;16.10;83.40;;;;;;5053948;28;20172;-85
2023/07/07 06:10:22;;;;;;;10.77;9.68;;;16.20;83.50;;;;;;5055230;28;20169;-85
2023/07/07 06:12:48;;;;;;;10.50;9.13;;;16.30;83.00;;;;;;5054000;28;20750;-85
2023/07/07 06:15:13;;;;;;;10.45;9.50;;;16.30;82.70;;;;;;5053839;28;20168;-84
2023/07/07 06:17:39;;;;;;;10.30;9.32;;;16.40;83.00;;;;;;5055060;28;20584;-84
2023/07/07 06:20:05;;;;;;;9.77;8.95;;;16.40;82.30;;;;;;5053640;28;20171;-85
2023/07/07 06:22:30;;;;;;;8.73;8.02;;;16.50;82.00;;;;;;5054920;28;20168;-85
2023/07/07 06:24:56;;;;;;;9.50;8.55;;;16.70;81.70;;;;;;5055541;28;20546;-84
2023/07/07 06:27:21;;;;;;;12.02;10.93;;;16.80;82.10;;;;;;5054937;28;20208;-84
2023/07/07 06:29:47;;;;;;;10.77;9.98;;;16.80;81.90;;;;;;5053715;28;20257;-84
2023/07/07 06:32:13;;;;;;;12.32;10.75;;;16.80;80.80;;;;;;5055360;28;20168;-83
2023/07/07 06:34:39;;;;;;;11.45;10.25;;;16.80;80.30;;;;;;5054875;28;20192;-84
2023/07/07 06:37:05;;;;;;;13.90;10.90;;;17.00;81.10;;;;;;5053950;28;20180;-85
2023/07/07 06:39:31;;;;;;;11.32;10.38;;;17.10;80.80;;;;;;5055097;28;20171;-85
2023/07/07 06:41:59;;;;;;;11.48;10.45;;;17.10;80.50;;;;;;5053342;28;20218;-85
2023/07/07 06:44:24;;;;;;;12.52;10.80;;;17.20;80.20;;;;;;5054580;28;20206;-85
2023/07/07 06:46:50;;;;;;;12.38;11.32;;;17.30;80.90;;;;;;5053121;28;20199;-85
2023/07/07 06:49:16;;;;;;;12.93;11.65;;;17.40;80.30;;;;;;5053230;28;20640;-85
2023/07/07 06:51:41;;;;;;;12.45;11.30;;;17.40;79.90;;;;;;5054328;28;20164;-85
2023/07/07 06:54:07;;;;;;;13.13;12.05;;;17.60;79.90;;;;;;5052831;28;20223;-86
2023/07/07 06:56:32;;;;;;;12.38;11.43;;;17.70;79.80;;;;;;5052955;28;20191;-85
2023/07/07 06:58:58;;;;;;;11.98;11.00;;;17.80;79.60;;;;;;5053327;28;20176;-84
2023/07/07 07:01:23;;;;;;;12.43;11.38;;;17.80;79.70;;;;;;5053509;28;20176;-85
2023/07/07 07:03:49;;;;;;;13.27;12.07;;;17.90;79.50;;;;;;5053982;28;20187;-86
2023/07/07 07:06:14;;;;;;;13.23;12.00;;;18.00;79.30;;;;;;5052693;28;20199;-86
2023/07/07 07:08:40;;;;;;;13.30;12.07;;;18.20;79.10;;;;;;5052725;28;20627;-86
2023/07/07 07:11:06;;;;;;;17.77;12.50;;;18.20;79.20;;;;;;5052666;28;20175;-85
2023/07/07 07:13:32;;;;;;;14.35;13.13;;;18.20;78.60;;;;;;5051639;28;20635;-85
2023/07/07 07:15:57;;;;;;;13.45;12.15;;;18.20;78.60;;;;;;5052641;28;20187;-86
2023/07/07 07:18:23;;;;;;;14.27;12.48;;;18.50;79.10;;;;;;5052606;28;20176;-86
2023/07/07 07:20:50;;;;;;;14.70;13.25;;;18.50;78.20;;;;;;5054318;28;20168;-85
2023/07/07 07:23:16;;;;;;;13.23;12.05;;;18.60;78.00;;;;;;5052407;28;20568;-86
2023/07/07 07:25:45;;;;;;;14.10;12.90;;;18.70;78.20;;;;;;5053667;28;20199;-84
2023/07/07 07:28:12;;;;;;;15.00;13.50;;;18.70;76.70;;;;;;5052368;28;20267;-86
2023/07/07 07:30:38;;;;;;;14.30;13.20;;;18.90;76.70;;;;;;5054061;28;20591;-86
2023/07/07 07:33:06;;;;;;;15.40;13.88;;;19.10;77.40;;;;;;5052244;28;20283;-86
2023/07/07 07:35:32;;;;;;;15.52;14.20;;;19.20;75.40;;;;;;5052326;28;20180;-86
2023/07/07 07:37:58;;;;;;;16.67;14.82;;;19.20;75.10;;;;;;5053447;28;20180;-86
2023/07/07 07:40:23;;;;;;;15.68;14.27;;;19.20;74.50;;;;;;5053862;28;20170;-86
2023/07/07 07:42:52;;;;;;;15.32;14.18;;;19.30;74.50;;;;;;5052493;28;20180;-87
2023/07/07 07:45:21;;;;;;;15.07;13.75;;;19.40;74.60;;;;;;5053390;28;20548;-86
2023/07/07 07:47:47;;;;;;;15.65;14.20;;;19.60;75.20;;;;;;5053885;28;20183;-86
2023/07/07 07:50:15;;;;;;;16.88;15.38;;;19.70;74.40;;;;;;5053482;28;20254;-86
2023/07/07 07:52:41;;;;;;;16.05;14.65;;;19.70;72.70;;;;;;5052535;28;20172;-86
2023/07/07 07:55:07;;;;;;;15.55;14.10;;;19.90;73.50;;;;;;5053218;28;20270;-86
2023/07/07 07:57:32;;;;;;;16.17;14.88;;;19.90;73.60;;;;;;5051923;28;20171;-86
2023/07/07 07:59:58;;;;;;;16.77;15.27;;;20.00;73.20;;;;;;5053025;28;20176;-85
2023/07/07 08:02:23;;;;;;;15.20;14.00;;;20.20;73.20;;;;;;5051826;28;20598;-86
2023/07/07 08:04:49;;;;;;;17.00;15.60;;;20.20;73.70;;;;;;5051830;28;20626;-87
2023/07/07 08:07:14;;;;;;;15.40;14.20;;;20.20;72.40;;;;;;5052674;28;20196;-87
2023/07/07 08:09:40;;;;;;;16.73;15.25;;;20.50;73.60;;;;;;5052044;28;20168;-87
2023/07/07 08:12:07;;;;;;;16.45;15.15;;;20.70;72.80;;;;;;5051883;28;20172;-86
2023/07/07 08:14:33;;;;;;;16.83;15.52;;;20.80;69.90;;;;;;5051703;28;20188;-86
2023/07/07 08:17:04;;;;;;;17.17;15.82;;;20.80;69.30;;;;;;5053025;28;20171;-86
2023/07/07 08:19:30;;;;;;;17.05;15.43;;;20.90;69.70;;;;;;5053018;28;20243;-86
2023/07/07 08:21:57;;;;;;;16.63;15.25;;;21.10;71.40;;;;;;5051560;28;20180;-87
2023/07/07 08:24:24;;;;;;;18.20;16.70;;;21.20;70.30;;;;;;5054083;28;20809;-86
2023/07/07 08:26:50;;;;;;;19.67;17.92;;;21.20;69.90;;;;;;5055770;28;20200;-86
2023/07/07 08:29:15;;;;;;;19.08;17.73;;;21.20;65.30;;;;;;5056339;28;20179;-86
2023/07/07 08:31:41;;;;;;;20.10;18.55;;;21.40;65.10;;;;;;5055698;28;20167;-86
2023/07/07 08:34:06;;;;;;;20.38;18.63;;;21.50;65.60;;;;;;5055649;28;20199;-85
2023/07/07 08:36:32;;;;;;;20.35;18.65;;;21.40;64.60;;;;;;5057215;28;20184;-86
2023/07/07 08:39:10;;;;;;;19.88;18.33;;;21.60;64.30;;;;;;5055862;28;20180;-86
2023/07/07 08:41:36;;;;;;;19.70;18.08;;;21.70;64.40;;;;;;5055780;28;20184;-86
2023/07/07 08:44:02;;;;;;;18.95;17.52;;;21.80;61.60;;;;;;5055530;28;20254;-87
2023/07/07 08:46:54;;;;;;;18.90;17.30;;;21.70;61.40;;;;;;5056642;28;20555;-86
2023/07/07 08:49:33;;;;;;;19.52;17.98;;;21.90;64.70;;;;;;5055415;28;20164;-87
2023/07/07 08:52:32;;;;;;;20.98;19.45;;;22.10;61.50;;;;;;5056744;28;20636;-86
2023/07/07 08:55:35;;;;;;;21.65;20.05;;;22.20;61.00;;;;;;5051871;28;20233;-86
2023/07/07 08:58:22;;;;;;;20.83;19.20;;;22.20;61.20;;;;;;5056168;28;20164;-86
2023/07/07 09:01:14;;;;;;;21.70;20.02;;;22.20;59.80;;;;;;5055187;28;20602;-86
2023/07/07 09:03:53;;;;;;;21.52;19.98;;;22.50;61.40;;;;;;5055089;28;20281;-86
2023/07/07 09:06:34;;;;;;;21.73;20.13;;;22.80;61.70;;;;;;5055822;28;20196;-87
2023/07/07 09:09:45;;;;;;;21.55;19.90;;;23.00;61.60;;;;;;5056811;28;20148;-86
2023/07/07 09:12:41;;;;;;;20.55;18.83;;;23.00;57.60;;;;;;5051254;28;20177;-85
2023/07/07 09:15:22;;;;;;;20.50;18.90;;;22.50;56.30;;;;;;5054960;28;20584;-86
2023/07/07 09:17:55;;;;;;;20.13;18.35;;;22.70;58.00;;;;;;5054947;28;20179;-86
2023/07/07 09:20:23;;;;;;;19.63;18.02;;;23.10;57.10;;;;;;5056065;28;20186;-85
2023/07/07 09:23:04;;;;;;;17.98;16.58;;;23.20;56.30;;;;;;5055859;28;20551;-86
2023/07/07 09:26:08;;;;;;;19.13;17.40;;;23.10;54.30;;;;;;5056212;28;20192;-86
2023/07/07 09:28:44;;;;;;;18.42;17.02;;;23.30;56.50;;;;;;5048512;28;20180;-86
2023/07/07 09:31:31;;;;;;;19.38;17.88;;;23.10;54.40;;;;;;5055816;28;20160;-86
2023/07/07 09:33:59;;;;;;;18.23;16.52;;;23.40;56.20;;;;;;5055761;28;20191;-86
2023/07/07 09:36:32;;;;;;;18.20;16.70;;;23.30;55.00;;;;;;5053438;28;20173;-86
2023/07/07 09:39:22;;;;;;;19.90;16.90;;;24.00;57.90;;;;;;5054501;28;20599;-86
2023/07/07 09:42:00;;;;;;;17.70;15.98;;;24.20;56.10;;;;;;5055958;28;20628;-86
2023/07/07 09:45:05;;;;;;;17.10;15.60;;;24.20;52.80;;;;;;5054320;28;20246;-86
2023/07/07 09:47:56;;;;;;;18.63;17.13;;;23.80;55.10;;;;;;5050798;28;20216;-86
2023/07/07 09:50:28;;;;;;;18.00;16.70;;;23.90;53.80;;;;;;5054267;28;20183;-86
2023/07/07 09:53:04;;;;;;;17.90;16.30;;;23.80;53.30;;;;;;5055414;28;20400;-86
2023/07/07 09:55:32;;;;;;;18.20;16.77;;;23.80;51.20;;;;;;5054620;28;20206;-85
2023/07/07 09:58:22;;;;;;;17.60;16.30;;;23.50;52.90;;;;;;5055685;28;20179;-84
2023/07/07 10:00:54;;;;;;;17.38;15.98;;;23.60;52.40;;;;;;5055918;28;20156;-84
2023/07/07 10:03:27;;;;;;;18.08;16.67;;;23.60;53.90;;;;;;5055316;28;20203;-86
2023/07/07 10:05:54;;;;;;;17.95;16.52;;;23.90;53.30;;;;;;5054302;28;20206;-86
2023/07/07 10:08:19;;;;;;;17.75;16.38;;;24.20;50.90;;;;;;5053995;28;20587;-86
2023/07/07 10:10:54;;;;;;;18.35;16.90;;;24.10;49.60;;;;;;5053867;28;20230;-86
2023/07/07 10:13:21;;;;;;;17.65;16.38;;;23.60;50.30;;;;;;5053977;28;20187;-86
2023/07/07 10:15:58;;;;;;;19.30;17.73;;;23.90;51.00;;;;;;5053788;28;20206;-86
2023/07/07 10:18:27;;;;;;;18.58;16.60;;;24.10;50.00;;;;;;5053842;28;20172;-86
2023/07/07 10:20:57;;;;;;;18.58;17.17;;;24.20;52.10;;;;;;5054956;28;20238;-85
2023/07/07 10:23:26;;;;;;;18.60;17.15;;;24.30;51.50;;;;;;5054802;28;20246;-85
2023/07/07 10:25:52;;;;;;;17.73;16.33;;;24.40;49.10;;;;;;5054769;28;20245;-85
2023/07/07 10:28:19;;;;;;;18.63;17.20;;;24.20;46.10;;;;;;5053458;28;20271;-85
2023/07/07 10:30:47;;;;;;;19.08;17.65;;;24.30;47.60;;;;;;5053361;28;20172;-85
2023/07/07 10:33:16;;;;;;;19.58;17.95;;;24.50;50.50;;;;;;5054621;28;20261;-85
2023/07/07 10:35:41;;;;;;;18.10;16.73;;;24.50;51.20;;;;;;5053325;28;20183;-86
2023/07/07 10:38:09;;;;;;;18.80;17.33;;;24.90;50.80;;;;;;5053334;28;20247;-86
2023/07/07 10:40:36;;;;;;;18.35;16.48;;;25.20;48.40;;;;;;5054439;28;20305;-85
2023/07/07 10:43:04;;;;;;;18.27;16.73;;;25.40;48.30;;;;;;5053183;28;20261;-86
2023/07/07 10:45:29;;;;;;;19.55;17.83;;;25.30;46.90;;;;;;5054339;28;20226;-86
2023/07/07 10:47:55;;;;;;;19.13;17.83;;;25.50;44.60;;;;;;5052995;28;20207;-86
2023/07/07 10:50:25;;;;;;;18.38;17.08;;;25.60;47.50;;;;;;5053136;28;20183;-86
2023/07/07 10:52:59;;;;;;;19.98;18.17;;;25.20;47.40;;;;;;5054595;28;20734;-85
2023/07/07 10:56:04;;;;;;;17.88;16.65;;;25.20;48.10;;;;;;5053080;28;20187;-87
2023/07/07 10:58:38;;;;;;;19.15;17.65;;;25.70;46.20;;;;;;5052951;28;20171;-86
2023/07/07 11:01:33;;;;;;;18.52;16.95;;;26.10;47.10;;;;;;5052981;28;20172;-86
2023/07/07 11:04:17;;;;;;;20.27;18.55;;;25.80;45.40;;;;;;5053597;28;20210;-87
2023/07/07 11:06:59;;;;;;;19.30;17.90;;;25.70;45.90;;;;;;5053072;28;20195;-87
2023/07/07 11:09:53;;;;;;;19.20;17.80;;;25.80;43.10;;;;;;5053486;28;20180;-87
2023/07/07 11:12:37;;;;;;;20.10;18.35;;;25.70;42.90;;;;;;5053356;28;20173;-87
2023/07/07 11:15:05;;;;;;;20.30;18.27;;;25.40;42.60;;;;;;5053401;28;20631;-87
2023/07/07 11:18:10;;;;;;;20.20;18.58;;;25.70;45.30;;;;;;5052695;28;20666;-87
2023/07/07 11:20:56;;;;;;;19.20;17.80;;;25.00;43.90;;;;;;5052913;28;20206;-86
2023/07/07 11:23:22;;;;;;;19.00;17.60;;;25.50;45.80;;;;;;5052599;28;20196;-86
2023/07/07 11:26:13;;;;;;;18.75;17.42;;;25.30;45.50;;;;;;5052645;28;20577;-86
2023/07/07 11:28:57;;;;;;;18.55;17.15;;;25.60;45.40;;;;;;5052578;28;20222;-86
2023/07/07 11:31:45;;;;;;;18.67;17.08;;;25.90;43.80;;;;;;5053920;28;20647;-87
2023/07/07 11:34:34;;;;;;;17.80;16.05;;;26.10;44.00;;;;;;5054021;28;20192;-86
2023/07/07 11:37:21;;;;;;;18.60;17.17;;;25.80;44.90;;;;;;5052447;28;20176;-86
2023/07/07 11:40:12;;;;;;;17.90;16.70;;;26.20;42.00;;;;;;5053776;28;20164;-86
2023/07/07 11:43:02;;;;;;;19.02;17.33;;;26.60;43.20;;;;;;5053823;28;20519;-86
2023/07/07 11:45:40;;;;;;;19.10;17.17;;;26.70;44.60;;;;;;5052216;28;20210;-87
2023/07/07 11:48:34;;;;;;;18.50;17.02;;;26.40;43.40;;;;;;5052276;28;20547;-87
2023/07/07 11:51:22;;;;;;;17.83;16.60;;;26.80;44.80;;;;;;5053170;28;20186;-87
2023/07/07 11:54:01;;;;;;;19.00;17.55;;;27.00;45.10;;;;;;5053451;28;20242;-87
2023/07/07 11:56:53;;;;;;;18.75;17.15;;;27.10;44.40;;;;;;5053096;28;20275;-87
2023/07/07 11:59:57;;;;;;;18.42;17.02;;;27.20;44.00;;;;;;5051509;28;20218;-87
2023/07/07 12:02:38;;;;;;;18.65;16.92;;;26.50;43.70;;;;;;5052569;28;20282;-86
2023/07/07 12:05:11;;;;;;;18.30;17.00;;;26.20;43.10;;;;;;5052098;28;20175;-87
2023/07/07 12:07:54;;;;;;;19.08;17.50;;;26.70;43.30;;;;;;5052228;28;20207;-87
2023/07/07 12:10:22;;;;;;;18.73;17.35;;;26.20;42.80;;;;;;5052967;28;20538;-87
2023/07/07 12:12:56;;;;;;;19.95;18.25;;;27.10;40.90;;;;;;5052005;28;20176;-87
2023/07/07 12:15:32;;;;;;;20.00;18.60;;;27.50;39.20;;;;;;5052208;28;20168;-88
2023/07/07 12:18:16;;;;;;;20.33;18.90;;;27.90;38.30;;;;;;5053997;28;20605;-88
2023/07/07 12:20:47;;;;;;;19.88;18.45;;;28.10;34.60;;;;;;5053470;28;20164;-87
2023/07/07 12:23:20;;;;;;;19.65;17.95;;;28.10;36.80;;;;;;5052168;28;20273;-87
2023/07/07 12:25:46;;;;;;;19.17;17.77;;;27.70;41.80;;;;;;5052703;28;20569;-87
2023/07/07 12:28:13;;;;;;;18.63;16.98;;;27.20;39.80;;;;;;5053577;28;20172;-88
2023/07/07 12:30:47;;;;;;;18.52;17.13;;;28.00;41.60;;;;;;5052121;28;20176;-88
2023/07/07 12:33:15;;;;;;;18.40;17.17;;;27.90;38.40;;;;;;5053751;28;20183;-88
2023/07/07 12:35:52;;;;;;;18.73;17.20;;;28.30;38.20;;;;;;5053220;28;20243;-88
2023/07/07 12:38:27;;;;;;;18.50;17.00;;;28.10;38.20;;;;;;5053712;28;20160;-88
2023/07/07 12:41:21;;;;;;;18.70;17.40;;;28.70;36.70;;;;;;5052713;28;20167;-88
2023/07/07 12:43:52;;;;;;;18.30;16.80;;;28.70;37.10;;;;;;5053761;28;20192;-87
2023/07/07 12:46:28;;;;;;;19.13;17.73;;;28.30;37.10;;;;;;5051965;28;20206;-88
2023/07/07 12:48:57;;;;;;;18.52;17.10;;;28.60;36.70;;;;;;5052235;28;20172;-88
2023/07/07 12:51:26;;;;;;;17.98;16.52;;;28.80;34.00;;;;;;5053551;28;20187;-88